sensor_id;sensor_type;location;lat;lon;timestamp;P1;durP1;ratioP1;P2;durP2;ratioP2
18822;SDS011;9540;51.550;7.980;2022-07-30T00:01:48;7.75;;;4.10;;
18822;SDS011;9540;51.550;7.980;2022-07-30T00:04:15;9.13;;;4.65;;
18822;SDS011;9540;51.550;7.980;2022-07-30T00:06:42;6.93;;;4.38;;
18822;SDS011;9540;51.550;7.980;2022-07-30T00:09:11;7.78;;;4.45;;
18822;SDS011;9540;51.550;7.980;2022-07-30T00:11:38;10.32;;;5.00;;
18822;SDS011;9540;51.550;7.980;2022-07-30T00:14:05;8.40;;;4.40;;
18822;SDS011;9540;51.550;7.980;2022-07-30T00:16:32;9.85;;;5.25;;
18822;SDS011;9540;51.550;7.980;2022-07-30T00:18:59;6.55;;;4.88;;
18822;SDS011;9540;51.550;7.980;2022-07-30T00:21:26;8.35;;;5.47;;
18822;SDS011;9540;51.550;7.980;2022-07-30T00:23:53;10.38;;;5.28;;
18822;SDS011;9540;51.550;7.980;2022-07-30T00:26:21;7.93;;;5.00;;
18822;SDS011;9540;51.550;7.980;2022-07-30T00:28:48;11.70;;;6.95;;
18822;SDS011;9540;51.550;7.980;2022-07-30T00:31:15;9.35;;;5.82;;
18822;SDS011;9540;51.550;7.980;2022-07-30T00:33:42;10.30;;;6.13;;
18822;SDS011;9540;51.550;7.980;2022-07-30T00:36:09;10.05;;;6.15;;
18822;SDS011;9540;51.550;7.980;2022-07-30T00:38:36;7.80;;;5.32;;
18822;SDS011;9540;51.550;7.980;2022-07-30T00:41:03;8.13;;;5.10;;
18822;SDS011;9540;51.550;7.980;2022-07-30T00:43:31;8.95;;;5.43;;
18822;SDS011;9540;51.550;7.980;2022-07-30T00:45:58;9.07;;;5.53;;
18822;SDS011;9540;51.550;7.980;2022-07-30T00:48:25;5.68;;;5.00;;
18822;SDS011;9540;51.550;7.980;2022-07-30T00:50:52;10.25;;;5.68;;
18822;SDS011;9540;51.550;7.980;2022-07-30T00:53:19;11.90;;;5.63;;
18822;SDS011;9540;51.550;7.980;2022-07-30T00:55:46;9.35;;;5.70;;
18822;SDS011;9540;51.550;7.980;2022-07-30T00:58:13;10.35;;;5.57;;
18822;SDS011;9540;51.550;7.980;2022-07-30T01:00:41;9.27;;;5.70;;
18822;SDS011;9540;51.550;7.980;2022-07-30T01:03:09;9.10;;;5.72;;
18822;SDS011;9540;51.550;7.980;2022-07-30T01:05:36;10.80;;;6.13;;
18822;SDS011;9540;51.550;7.980;2022-07-30T01:08:03;11.30;;;5.68;;
18822;SDS011;9540;51.550;7.980;2022-07-30T01:10:30;8.13;;;6.00;;
18822;SDS011;9540;51.550;7.980;2022-07-30T01:12:57;11.43;;;5.75;;
18822;SDS011;9540;51.550;7.980;2022-07-30T01:15:26;6.03;;;5.13;;
18822;SDS011;9540;51.550;7.980;2022-07-30T01:17:55;11.30;;;6.32;;
18822;SDS011;9540;51.550;7.980;2022-07-30T01:20:25;9.77;;;5.63;;
18822;SDS011;9540;51.550;7.980;2022-07-30T01:22:57;11.73;;;5.60;;
18822;SDS011;9540;51.550;7.980;2022-07-30T01:25:48;10.13;;;6.80;;
18822;SDS011;9540;51.550;7.980;2022-07-30T01:28:21;14.50;;;6.75;;
18822;SDS011;9540;51.550;7.980;2022-07-30T01:30:52;9.00;;;5.53;;
18822;SDS011;9540;51.550;7.980;2022-07-30T01:33:21;7.18;;;5.70;;
18822;SDS011;9540;51.550;7.980;2022-07-30T01:35:49;6.60;;;5.85;;
18822;SDS011;9540;51.550;7.980;2022-07-30T01:38:18;11.55;;;6.75;;
18822;SDS011;9540;51.550;7.980;2022-07-30T01:40:48;10.48;;;6.45;;
18822;SDS011;9540;51.550;7.980;2022-07-30T01:43:17;9.90;;;5.40;;
18822;SDS011;9540;51.550;7.980;2022-07-30T01:45:47;10.77;;;5.97;;
18822;SDS011;9540;51.550;7.980;2022-07-30T01:48:17;9.85;;;5.85;;
18822;SDS011;9540;51.550;7.980;2022-07-30T01:50:46;15.68;;;5.63;;
18822;SDS011;9540;51.550;7.980;2022-07-30T01:53:16;9.77;;;5.85;;
18822;SDS011;9540;51.550;7.980;2022-07-30T01:55:46;14.43;;;6.35;;
18822;SDS011;9540;51.550;7.980;2022-07-30T01:58:15;10.93;;;5.90;;
18822;SDS011;9540;51.550;7.980;2022-07-30T02:00:46;6.22;;;5.65;;
18822;SDS011;9540;51.550;7.980;2022-07-30T02:03:14;8.50;;;6.38;;
18822;SDS011;9540;51.550;7.980;2022-07-30T02:05:43;9.80;;;6.18;;
18822;SDS011;9540;51.550;7.980;2022-07-30T02:08:16;9.38;;;6.07;;
18822;SDS011;9540;51.550;7.980;2022-07-30T02:10:50;14.63;;;7.70;;
18822;SDS011;9540;51.550;7.980;2022-07-30T02:13:26;13.10;;;7.13;;
18822;SDS011;9540;51.550;7.980;2022-07-30T02:15:55;9.88;;;6.85;;
18822;SDS011;9540;51.550;7.980;2022-07-30T02:18:26;10.70;;;7.50;;
18822;SDS011;9540;51.550;7.980;2022-07-30T02:20:57;9.50;;;7.38;;
18822;SDS011;9540;51.550;7.980;2022-07-30T02:23:27;8.82;;;7.32;;
18822;SDS011;9540;51.550;7.980;2022-07-30T02:25:56;11.68;;;7.40;;
18822;SDS011;9540;51.550;7.980;2022-07-30T02:28:25;11.18;;;7.10;;
18822;SDS011;9540;51.550;7.980;2022-07-30T02:30:53;8.27;;;6.05;;
18822;SDS011;9540;51.550;7.980;2022-07-30T02:33:25;11.80;;;7.22;;
18822;SDS011;9540;51.550;7.980;2022-07-30T02:35:54;7.95;;;6.50;;
18822;SDS011;9540;51.550;7.980;2022-07-30T02:38:22;12.32;;;7.47;;
18822;SDS011;9540;51.550;7.980;2022-07-30T02:40:53;14.60;;;6.88;;
18822;SDS011;9540;51.550;7.980;2022-07-30T02:43:23;9.38;;;6.85;;
18822;SDS011;9540;51.550;7.980;2022-07-30T02:45:51;8.30;;;6.35;;
18822;SDS011;9540;51.550;7.980;2022-07-30T02:48:19;10.48;;;6.60;;
18822;SDS011;9540;51.550;7.980;2022-07-30T02:50:47;16.40;;;7.97;;
18822;SDS011;9540;51.550;7.980;2022-07-30T02:53:17;9.88;;;7.03;;
18822;SDS011;9540;51.550;7.980;2022-07-30T02:55:46;11.45;;;7.72;;
18822;SDS011;9540;51.550;7.980;2022-07-30T02:58:16;10.07;;;7.28;;
18822;SDS011;9540;51.550;7.980;2022-07-30T03:00:47;17.00;;;8.02;;
18822;SDS011;9540;51.550;7.980;2022-07-30T03:03:15;12.90;;;8.32;;
18822;SDS011;9540;51.550;7.980;2022-07-30T03:05:43;11.30;;;9.23;;
18822;SDS011;9540;51.550;7.980;2022-07-30T03:08:14;12.68;;;8.38;;
18822;SDS011;9540;51.550;7.980;2022-07-30T03:10:42;12.35;;;8.43;;
18822;SDS011;9540;51.550;7.980;2022-07-30T03:13:11;12.85;;;8.68;;
18822;SDS011;9540;51.550;7.980;2022-07-30T03:15:42;13.32;;;7.70;;
18822;SDS011;9540;51.550;7.980;2022-07-30T03:18:13;12.75;;;8.48;;
18822;SDS011;9540;51.550;7.980;2022-07-30T03:20:43;15.23;;;7.63;;
18822;SDS011;9540;51.550;7.980;2022-07-30T03:23:11;12.05;;;8.10;;
18822;SDS011;9540;51.550;7.980;2022-07-30T03:25:41;12.30;;;8.45;;
18822;SDS011;9540;51.550;7.980;2022-07-30T03:28:11;12.02;;;8.98;;
18822;SDS011;9540;51.550;7.980;2022-07-30T03:30:41;11.20;;;8.73;;
18822;SDS011;9540;51.550;7.980;2022-07-30T03:33:09;16.55;;;9.20;;
18822;SDS011;9540;51.550;7.980;2022-07-30T03:35:37;10.50;;;7.55;;
18822;SDS011;9540;51.550;7.980;2022-07-30T03:38:04;11.38;;;8.00;;
18822;SDS011;9540;51.550;7.980;2022-07-30T03:40:32;13.02;;;7.97;;
18822;SDS011;9540;51.550;7.980;2022-07-30T03:42:59;11.85;;;8.02;;
18822;SDS011;9540;51.550;7.980;2022-07-30T03:45:26;10.30;;;8.48;;
18822;SDS011;9540;51.550;7.980;2022-07-30T03:47:55;11.57;;;8.23;;
18822;SDS011;9540;51.550;7.980;2022-07-30T03:50:23;9.45;;;7.68;;
18822;SDS011;9540;51.550;7.980;2022-07-30T03:52:50;9.82;;;7.68;;
18822;SDS011;9540;51.550;7.980;2022-07-30T03:55:17;10.07;;;7.68;;
18822;SDS011;9540;51.550;7.980;2022-07-30T03:57:45;12.85;;;7.80;;
18822;SDS011;9540;51.550;7.980;2022-07-30T04:00:13;13.50;;;9.57;;
18822;SDS011;9540;51.550;7.980;2022-07-30T04:02:42;11.75;;;8.40;;
18822;SDS011;9540;51.550;7.980;2022-07-30T04:05:11;14.80;;;9.23;;
18822;SDS011;9540;51.550;7.980;2022-07-30T04:07:39;13.60;;;8.85;;
18822;SDS011;9540;51.550;7.980;2022-07-30T04:10:06;10.85;;;8.15;;
18822;SDS011;9540;51.550;7.980;2022-07-30T04:12:34;14.30;;;9.73;;
18822;SDS011;9540;51.550;7.980;2022-07-30T04:15:01;14.32;;;10.05;;
18822;SDS011;9540;51.550;7.980;2022-07-30T04:17:30;16.55;;;8.93;;
18822;SDS011;9540;51.550;7.980;2022-07-30T04:20:02;11.23;;;8.25;;
18822;SDS011;9540;51.550;7.980;2022-07-30T04:22:35;12.98;;;7.85;;
18822;SDS011;9540;51.550;7.980;2022-07-30T04:25:03;11.38;;;7.75;;
18822;SDS011;9540;51.550;7.980;2022-07-30T04:27:31;14.05;;;8.30;;
18822;SDS011;9540;51.550;7.980;2022-07-30T04:30:00;14.27;;;8.35;;
18822;SDS011;9540;51.550;7.980;2022-07-30T04:32:27;11.82;;;7.47;;
18822;SDS011;9540;51.550;7.980;2022-07-30T04:34:54;17.30;;;8.90;;
18822;SDS011;9540;51.550;7.980;2022-07-30T04:37:22;13.25;;;9.70;;
18822;SDS011;9540;51.550;7.980;2022-07-30T04:39:52;9.63;;;7.72;;
18822;SDS011;9540;51.550;7.980;2022-07-30T04:42:21;10.77;;;7.95;;
18822;SDS011;9540;51.550;7.980;2022-07-30T04:44:49;15.95;;;8.52;;
18822;SDS011;9540;51.550;7.980;2022-07-30T04:47:16;13.95;;;10.25;;
18822;SDS011;9540;51.550;7.980;2022-07-30T04:49:44;12.70;;;9.05;;
18822;SDS011;9540;51.550;7.980;2022-07-30T04:52:12;13.90;;;8.38;;
18822;SDS011;9540;51.550;7.980;2022-07-30T04:54:41;12.77;;;7.93;;
18822;SDS011;9540;51.550;7.980;2022-07-30T04:57:13;13.00;;;8.10;;
18822;SDS011;9540;51.550;7.980;2022-07-30T04:59:42;9.00;;;7.25;;
18822;SDS011;9540;51.550;7.980;2022-07-30T05:02:09;10.77;;;8.25;;
18822;SDS011;9540;51.550;7.980;2022-07-30T05:04:38;14.40;;;10.07;;
18822;SDS011;9540;51.550;7.980;2022-07-30T05:07:06;13.77;;;9.80;;
18822;SDS011;9540;51.550;7.980;2022-07-30T05:09:34;14.50;;;9.27;;
18822;SDS011;9540;51.550;7.980;2022-07-30T05:12:01;13.45;;;9.05;;
18822;SDS011;9540;51.550;7.980;2022-07-30T05:14:30;10.65;;;8.48;;
18822;SDS011;9540;51.550;7.980;2022-07-30T05:16:57;14.55;;;9.80;;
18822;SDS011;9540;51.550;7.980;2022-07-30T05:19:24;13.55;;;9.57;;
18822;SDS011;9540;51.550;7.980;2022-07-30T05:21:51;17.85;;;9.48;;
18822;SDS011;9540;51.550;7.980;2022-07-30T05:24:18;15.43;;;8.77;;
18822;SDS011;9540;51.550;7.980;2022-07-30T05:26:46;14.60;;;8.90;;
18822;SDS011;9540;51.550;7.980;2022-07-30T05:29:13;9.85;;;7.45;;
18822;SDS011;9540;51.550;7.980;2022-07-30T05:31:41;10.30;;;7.68;;
18822;SDS011;9540;51.550;7.980;2022-07-30T05:34:08;12.10;;;7.90;;
18822;SDS011;9540;51.550;7.980;2022-07-30T05:36:35;10.48;;;7.47;;
18822;SDS011;9540;51.550;7.980;2022-07-30T05:39:02;10.25;;;7.68;;
18822;SDS011;9540;51.550;7.980;2022-07-30T05:41:29;11.23;;;7.68;;
18822;SDS011;9540;51.550;7.980;2022-07-30T05:43:56;10.20;;;7.78;;
18822;SDS011;9540;51.550;7.980;2022-07-30T05:46:23;9.88;;;7.40;;
18822;SDS011;9540;51.550;7.980;2022-07-30T05:48:52;10.57;;;7.75;;
18822;SDS011;9540;51.550;7.980;2022-07-30T05:51:19;12.32;;;7.93;;
18822;SDS011;9540;51.550;7.980;2022-07-30T05:53:46;10.80;;;8.38;;
18822;SDS011;9540;51.550;7.980;2022-07-30T05:56:13;22.27;;;11.27;;
18822;SDS011;9540;51.550;7.980;2022-07-30T05:58:40;18.02;;;11.55;;
18822;SDS011;9540;51.550;7.980;2022-07-30T06:01:07;17.13;;;10.55;;
18822;SDS011;9540;51.550;7.980;2022-07-30T06:03:34;14.85;;;9.10;;
18822;SDS011;9540;51.550;7.980;2022-07-30T06:06:03;15.82;;;9.82;;
18822;SDS011;9540;51.550;7.980;2022-07-30T06:08:30;17.23;;;9.98;;
18822;SDS011;9540;51.550;7.980;2022-07-30T06:10:57;13.75;;;9.30;;
18822;SDS011;9540;51.550;7.980;2022-07-30T06:13:24;13.95;;;9.27;;
18822;SDS011;9540;51.550;7.980;2022-07-30T06:15:51;16.63;;;10.88;;
18822;SDS011;9540;51.550;7.980;2022-07-30T06:18:18;16.80;;;10.75;;
18822;SDS011;9540;51.550;7.980;2022-07-30T06:20:45;16.48;;;9.50;;
18822;SDS011;9540;51.550;7.980;2022-07-30T06:23:17;15.75;;;11.23;;
18822;SDS011;9540;51.550;7.980;2022-07-30T06:25:43;17.00;;;10.55;;
18822;SDS011;9540;51.550;7.980;2022-07-30T06:28:10;13.43;;;10.15;;
18822;SDS011;9540;51.550;7.980;2022-07-30T06:30:37;12.90;;;9.80;;
18822;SDS011;9540;51.550;7.980;2022-07-30T06:33:04;15.02;;;9.60;;
18822;SDS011;9540;51.550;7.980;2022-07-30T06:35:31;14.90;;;9.57;;
18822;SDS011;9540;51.550;7.980;2022-07-30T06:37:59;13.00;;;9.10;;
18822;SDS011;9540;51.550;7.980;2022-07-30T06:40:27;19.63;;;9.95;;
18822;SDS011;9540;51.550;7.980;2022-07-30T06:42:55;12.00;;;8.30;;
18822;SDS011;9540;51.550;7.980;2022-07-30T06:45:22;19.10;;;10.18;;
18822;SDS011;9540;51.550;7.980;2022-07-30T06:47:49;19.58;;;10.18;;
18822;SDS011;9540;51.550;7.980;2022-07-30T06:50:16;17.92;;;9.82;;
18822;SDS011;9540;51.550;7.980;2022-07-30T06:52:44;13.60;;;8.45;;
18822;SDS011;9540;51.550;7.980;2022-07-30T06:55:11;21.33;;;9.73;;
18822;SDS011;9540;51.550;7.980;2022-07-30T06:57:40;12.48;;;7.25;;
18822;SDS011;9540;51.550;7.980;2022-07-30T07:00:07;13.45;;;8.43;;
18822;SDS011;9540;51.550;7.980;2022-07-30T07:02:35;12.90;;;8.10;;
18822;SDS011;9540;51.550;7.980;2022-07-30T07:05:03;10.73;;;7.28;;
18822;SDS011;9540;51.550;7.980;2022-07-30T07:07:31;14.02;;;7.85;;
18822;SDS011;9540;51.550;7.980;2022-07-30T07:09:59;17.25;;;8.70;;
18822;SDS011;9540;51.550;7.980;2022-07-30T07:12:26;16.70;;;8.85;;
18822;SDS011;9540;51.550;7.980;2022-07-30T07:14:54;16.15;;;9.05;;
18822;SDS011;9540;51.550;7.980;2022-07-30T07:17:21;12.27;;;7.88;;
18822;SDS011;9540;51.550;7.980;2022-07-30T07:19:48;12.15;;;7.95;;
18822;SDS011;9540;51.550;7.980;2022-07-30T07:22:15;14.52;;;9.15;;
18822;SDS011;9540;51.550;7.980;2022-07-30T07:24:43;17.75;;;8.63;;
18822;SDS011;9540;51.550;7.980;2022-07-30T07:27:10;12.45;;;7.30;;
18822;SDS011;9540;51.550;7.980;2022-07-30T07:29:37;13.45;;;7.95;;
18822;SDS011;9540;51.550;7.980;2022-07-30T07:32:05;19.77;;;8.40;;
18822;SDS011;9540;51.550;7.980;2022-07-30T07:34:32;17.90;;;7.78;;
18822;SDS011;9540;51.550;7.980;2022-07-30T07:36:59;9.45;;;6.68;;
18822;SDS011;9540;51.550;7.980;2022-07-30T07:39:26;14.95;;;7.40;;
18822;SDS011;9540;51.550;7.980;2022-07-30T07:41:54;12.93;;;8.23;;
18822;SDS011;9540;51.550;7.980;2022-07-30T07:44:21;9.23;;;5.85;;
18822;SDS011;9540;51.550;7.980;2022-07-30T07:46:48;11.10;;;6.45;;
18822;SDS011;9540;51.550;7.980;2022-07-30T07:49:16;11.32;;;7.28;;
18822;SDS011;9540;51.550;7.980;2022-07-30T07:51:43;10.90;;;7.22;;
18822;SDS011;9540;51.550;7.980;2022-07-30T07:54:10;13.52;;;7.32;;
18822;SDS011;9540;51.550;7.980;2022-07-30T07:56:37;12.27;;;7.20;;
18822;SDS011;9540;51.550;7.980;2022-07-30T07:59:04;14.32;;;8.02;;
18822;SDS011;9540;51.550;7.980;2022-07-30T08:01:31;14.48;;;7.47;;
18822;SDS011;9540;51.550;7.980;2022-07-30T08:03:58;14.75;;;8.48;;
18822;SDS011;9540;51.550;7.980;2022-07-30T08:06:26;10.27;;;7.32;;
18822;SDS011;9540;51.550;7.980;2022-07-30T08:08:53;10.77;;;7.20;;
18822;SDS011;9540;51.550;7.980;2022-07-30T08:11:20;16.77;;;7.53;;
18822;SDS011;9540;51.550;7.980;2022-07-30T08:13:47;12.23;;;7.55;;
18822;SDS011;9540;51.550;7.980;2022-07-30T08:16:14;10.70;;;7.53;;
18822;SDS011;9540;51.550;7.980;2022-07-30T08:18:41;13.80;;;7.95;;
18822;SDS011;9540;51.550;7.980;2022-07-30T08:21:08;10.73;;;7.43;;
18822;SDS011;9540;51.550;7.980;2022-07-30T08:23:37;12.13;;;7.10;;
18822;SDS011;9540;51.550;7.980;2022-07-30T08:26:04;10.73;;;6.72;;
18822;SDS011;9540;51.550;7.980;2022-07-30T08:28:31;15.63;;;7.85;;
18822;SDS011;9540;51.550;7.980;2022-07-30T08:30:58;8.80;;;7.28;;
18822;SDS011;9540;51.550;7.980;2022-07-30T08:33:25;13.10;;;8.20;;
18822;SDS011;9540;51.550;7.980;2022-07-30T08:35:52;13.25;;;8.57;;
18822;SDS011;9540;51.550;7.980;2022-07-30T08:38:19;15.90;;;8.70;;
18822;SDS011;9540;51.550;7.980;2022-07-30T08:40:47;12.00;;;8.57;;
18822;SDS011;9540;51.550;7.980;2022-07-30T08:43:14;17.10;;;8.80;;
18822;SDS011;9540;51.550;7.980;2022-07-30T08:45:41;11.52;;;7.13;;
18822;SDS011;9540;51.550;7.980;2022-07-30T08:48:10;16.33;;;8.57;;
18822;SDS011;9540;51.550;7.980;2022-07-30T08:50:39;15.35;;;8.77;;
18822;SDS011;9540;51.550;7.980;2022-07-30T08:53:06;19.23;;;8.65;;
18822;SDS011;9540;51.550;7.980;2022-07-30T08:55:33;11.82;;;8.75;;
18822;SDS011;9540;51.550;7.980;2022-07-30T08:58:01;15.65;;;8.63;;
18822;SDS011;9540;51.550;7.980;2022-07-30T09:00:30;13.23;;;9.40;;
18822;SDS011;9540;51.550;7.980;2022-07-30T09:02:58;13.23;;;9.57;;
18822;SDS011;9540;51.550;7.980;2022-07-30T09:05:26;16.30;;;9.45;;
18822;SDS011;9540;51.550;7.980;2022-07-30T09:07:53;14.32;;;9.70;;
18822;SDS011;9540;51.550;7.980;2022-07-30T09:10:19;17.23;;;10.98;;
18822;SDS011;9540;51.550;7.980;2022-07-30T09:12:48;19.95;;;11.45;;
18822;SDS011;9540;51.550;7.980;2022-07-30T09:15:18;17.85;;;10.88;;
18822;SDS011;9540;51.550;7.980;2022-07-30T09:17:47;21.08;;;10.27;;
18822;SDS011;9540;51.550;7.980;2022-07-30T09:20:20;22.05;;;13.02;;
18822;SDS011;9540;51.550;7.980;2022-07-30T09:22:49;19.48;;;13.48;;
18822;SDS011;9540;51.550;7.980;2022-07-30T09:25:34;22.38;;;13.30;;
18822;SDS011;9540;51.550;7.980;2022-07-30T09:28:03;25.63;;;12.73;;
18822;SDS011;9540;51.550;7.980;2022-07-30T09:30:43;25.50;;;12.60;;
18822;SDS011;9540;51.550;7.980;2022-07-30T09:33:11;22.98;;;14.15;;
18822;SDS011;9540;51.550;7.980;2022-07-30T09:35:39;26.20;;;15.63;;
18822;SDS011;9540;51.550;7.980;2022-07-30T09:38:07;25.60;;;12.65;;
18822;SDS011;9540;51.550;7.980;2022-07-30T09:40:34;22.80;;;12.82;;
18822;SDS011;9540;51.550;7.980;2022-07-30T09:43:02;23.42;;;13.48;;
18822;SDS011;9540;51.550;7.980;2022-07-30T09:45:30;21.35;;;13.07;;
18822;SDS011;9540;51.550;7.980;2022-07-30T09:47:59;17.92;;;12.65;;
18822;SDS011;9540;51.550;7.980;2022-07-30T09:50:27;25.73;;;14.05;;
18822;SDS011;9540;51.550;7.980;2022-07-30T09:52:54;22.38;;;15.13;;
18822;SDS011;9540;51.550;7.980;2022-07-30T09:55:31;18.58;;;12.80;;
18822;SDS011;9540;51.550;7.980;2022-07-30T09:57:59;33.38;;;16.05;;
18822;SDS011;9540;51.550;7.980;2022-07-30T10:00:29;25.75;;;16.95;;
18822;SDS011;9540;51.550;7.980;2022-07-30T10:02:58;27.35;;;18.80;;
18822;SDS011;9540;51.550;7.980;2022-07-30T10:05:26;25.60;;;16.25;;
18822;SDS011;9540;51.550;7.980;2022-07-30T10:07:55;22.90;;;14.90;;
18822;SDS011;9540;51.550;7.980;2022-07-30T10:10:24;17.98;;;11.80;;
18822;SDS011;9540;51.550;7.980;2022-07-30T10:12:53;26.60;;;11.32;;
18822;SDS011;9540;51.550;7.980;2022-07-30T10:15:27;19.02;;;10.32;;
18822;SDS011;9540;51.550;7.980;2022-07-30T10:17:55;29.15;;;11.07;;
18822;SDS011;9540;51.550;7.980;2022-07-30T10:20:24;24.70;;;11.20;;
18822;SDS011;9540;51.550;7.980;2022-07-30T10:22:52;12.35;;;8.88;;
18822;SDS011;9540;51.550;7.980;2022-07-30T10:25:19;14.65;;;10.63;;
18822;SDS011;9540;51.550;7.980;2022-07-30T10:27:48;17.02;;;10.65;;
18822;SDS011;9540;51.550;7.980;2022-07-30T10:30:15;13.75;;;9.02;;
18822;SDS011;9540;51.550;7.980;2022-07-30T10:32:43;11.88;;;8.90;;
18822;SDS011;9540;51.550;7.980;2022-07-30T10:35:11;9.80;;;6.57;;
18822;SDS011;9540;51.550;7.980;2022-07-30T10:37:41;9.75;;;7.32;;
18822;SDS011;9540;51.550;7.980;2022-07-30T10:40:13;12.75;;;7.63;;
18822;SDS011;9540;51.550;7.980;2022-07-30T10:42:52;14.68;;;6.90;;
18822;SDS011;9540;51.550;7.980;2022-07-30T10:45:33;12.98;;;7.45;;
18822;SDS011;9540;51.550;7.980;2022-07-30T10:48:13;13.02;;;6.45;;
18822;SDS011;9540;51.550;7.980;2022-07-30T10:50:48;11.82;;;5.47;;
18822;SDS011;9540;51.550;7.980;2022-07-30T10:53:34;5.13;;;3.15;;
18822;SDS011;9540;51.550;7.980;2022-07-30T10:56:09;10.68;;;4.93;;
18822;SDS011;9540;51.550;7.980;2022-07-30T10:58:56;14.63;;;7.57;;
18822;SDS011;9540;51.550;7.980;2022-07-30T11:01:24;8.85;;;5.22;;
18822;SDS011;9540;51.550;7.980;2022-07-30T11:06:43;12.80;;;7.80;;
18822;SDS011;9540;51.550;7.980;2022-07-30T11:12:01;13.73;;;7.80;;
18822;SDS011;9540;51.550;7.980;2022-07-30T11:17:22;8.18;;;5.30;;
18822;SDS011;9540;51.550;7.980;2022-07-30T11:20:08;10.38;;;6.30;;
18822;SDS011;9540;51.550;7.980;2022-07-30T11:22:37;10.70;;;5.68;;
18822;SDS011;9540;51.550;7.980;2022-07-30T11:25:06;11.65;;;7.32;;
18822;SDS011;9540;51.550;7.980;2022-07-30T11:27:36;11.63;;;7.05;;
18822;SDS011;9540;51.550;7.980;2022-07-30T11:30:04;12.88;;;6.53;;
18822;SDS011;9540;51.550;7.980;2022-07-30T11:32:54;11.18;;;5.40;;
18822;SDS011;9540;51.550;7.980;2022-07-30T11:35:22;9.40;;;5.53;;
18822;SDS011;9540;51.550;7.980;2022-07-30T11:37:57;12.30;;;5.70;;
18822;SDS011;9540;51.550;7.980;2022-07-30T11:40:29;10.05;;;5.90;;
18822;SDS011;9540;51.550;7.980;2022-07-30T11:45:44;10.70;;;7.28;;
18822;SDS011;9540;51.550;7.980;2022-07-30T11:48:12;11.55;;;7.35;;
18822;SDS011;9540;51.550;7.980;2022-07-30T11:50:41;12.10;;;6.72;;
18822;SDS011;9540;51.550;7.980;2022-07-30T11:53:10;11.32;;;7.63;;
18822;SDS011;9540;51.550;7.980;2022-07-30T11:55:42;10.60;;;6.93;;
18822;SDS011;9540;51.550;7.980;2022-07-30T11:58:21;14.23;;;6.95;;
18822;SDS011;9540;51.550;7.980;2022-07-30T12:00:51;11.25;;;5.78;;
18822;SDS011;9540;51.550;7.980;2022-07-30T12:03:19;9.55;;;4.88;;
18822;SDS011;9540;51.550;7.980;2022-07-30T12:05:47;10.00;;;6.22;;
18822;SDS011;9540;51.550;7.980;2022-07-30T12:08:15;10.55;;;5.38;;
18822;SDS011;9540;51.550;7.980;2022-07-30T12:10:54;9.70;;;5.65;;
18822;SDS011;9540;51.550;7.980;2022-07-30T12:13:23;7.68;;;5.25;;
18822;SDS011;9540;51.550;7.980;2022-07-30T12:15:50;9.13;;;4.72;;
18822;SDS011;9540;51.550;7.980;2022-07-30T12:18:27;8.20;;;5.38;;
18822;SDS011;9540;51.550;7.980;2022-07-30T12:20:56;9.63;;;5.05;;
18822;SDS011;9540;51.550;7.980;2022-07-30T12:23:24;10.70;;;5.90;;
18822;SDS011;9540;51.550;7.980;2022-07-30T12:25:53;7.40;;;4.88;;
18822;SDS011;9540;51.550;7.980;2022-07-30T12:28:21;9.80;;;5.22;;
18822;SDS011;9540;51.550;7.980;2022-07-30T12:30:50;11.70;;;5.50;;
18822;SDS011;9540;51.550;7.980;2022-07-30T12:33:18;8.00;;;5.20;;
18822;SDS011;9540;51.550;7.980;2022-07-30T12:35:47;8.35;;;4.75;;
18822;SDS011;9540;51.550;7.980;2022-07-30T12:38:15;8.88;;;6.13;;
18822;SDS011;9540;51.550;7.980;2022-07-30T12:40:56;7.55;;;5.50;;
18822;SDS011;9540;51.550;7.980;2022-07-30T12:43:43;6.43;;;5.38;;
18822;SDS011;9540;51.550;7.980;2022-07-30T12:46:13;7.75;;;5.28;;
18822;SDS011;9540;51.550;7.980;2022-07-30T12:48:49;6.88;;;5.40;;
18822;SDS011;9540;51.550;7.980;2022-07-30T12:51:20;6.43;;;5.45;;
18822;SDS011;9540;51.550;7.980;2022-07-30T12:53:48;7.65;;;5.85;;
18822;SDS011;9540;51.550;7.980;2022-07-30T12:56:17;12.27;;;6.43;;
18822;SDS011;9540;51.550;7.980;2022-07-30T12:58:46;13.00;;;5.75;;
18822;SDS011;9540;51.550;7.980;2022-07-30T13:01:13;8.23;;;5.75;;
18822;SDS011;9540;51.550;7.980;2022-07-30T13:03:41;14.00;;;6.05;;
18822;SDS011;9540;51.550;7.980;2022-07-30T13:06:13;9.45;;;5.35;;
18822;SDS011;9540;51.550;7.980;2022-07-30T13:08:44;10.93;;;5.85;;
18822;SDS011;9540;51.550;7.980;2022-07-30T13:11:13;10.63;;;5.32;;
18822;SDS011;9540;51.550;7.980;2022-07-30T13:13:42;10.82;;;7.47;;
18822;SDS011;9540;51.550;7.980;2022-07-30T13:16:09;14.30;;;8.73;;
18822;SDS011;9540;51.550;7.980;2022-07-30T13:18:36;15.65;;;8.25;;
18822;SDS011;9540;51.550;7.980;2022-07-30T13:21:03;18.10;;;8.20;;
18822;SDS011;9540;51.550;7.980;2022-07-30T13:23:33;11.30;;;8.32;;
18822;SDS011;9540;51.550;7.980;2022-07-30T13:26:00;15.75;;;8.60;;
18822;SDS011;9540;51.550;7.980;2022-07-30T13:28:27;12.18;;;7.75;;
18822;SDS011;9540;51.550;7.980;2022-07-30T13:30:57;9.55;;;7.78;;
18822;SDS011;9540;51.550;7.980;2022-07-30T13:33:24;13.80;;;7.13;;
18822;SDS011;9540;51.550;7.980;2022-07-30T13:35:52;10.18;;;6.38;;
18822;SDS011;9540;51.550;7.980;2022-07-30T13:38:19;10.80;;;7.18;;
18822;SDS011;9540;51.550;7.980;2022-07-30T13:40:46;12.52;;;6.57;;
18822;SDS011;9540;51.550;7.980;2022-07-30T13:43:13;11.65;;;5.88;;
18822;SDS011;9540;51.550;7.980;2022-07-30T13:45:40;7.57;;;5.90;;
18822;SDS011;9540;51.550;7.980;2022-07-30T13:48:08;7.22;;;5.07;;
18822;SDS011;9540;51.550;7.980;2022-07-30T13:50:35;11.15;;;6.10;;
18822;SDS011;9540;51.550;7.980;2022-07-30T13:53:02;7.80;;;4.72;;
18822;SDS011;9540;51.550;7.980;2022-07-30T13:55:29;11.02;;;4.97;;
18822;SDS011;9540;51.550;7.980;2022-07-30T13:57:56;11.65;;;4.63;;
18822;SDS011;9540;51.550;7.980;2022-07-30T14:00:24;7.97;;;4.43;;
18822;SDS011;9540;51.550;7.980;2022-07-30T14:02:56;5.15;;;3.67;;
18822;SDS011;9540;51.550;7.980;2022-07-30T14:05:25;5.80;;;3.78;;
18822;SDS011;9540;51.550;7.980;2022-07-30T14:07:53;6.72;;;4.30;;
18822;SDS011;9540;51.550;7.980;2022-07-30T14:10:20;7.40;;;3.65;;
18822;SDS011;9540;51.550;7.980;2022-07-30T14:12:47;4.15;;;3.38;;
18822;SDS011;9540;51.550;7.980;2022-07-30T14:15:15;6.70;;;5.20;;
18822;SDS011;9540;51.550;7.980;2022-07-30T14:17:42;9.85;;;4.35;;
18822;SDS011;9540;51.550;7.980;2022-07-30T14:20:09;6.70;;;4.25;;
18822;SDS011;9540;51.550;7.980;2022-07-30T14:22:38;5.80;;;3.83;;
18822;SDS011;9540;51.550;7.980;2022-07-30T14:25:06;6.80;;;3.50;;
18822;SDS011;9540;51.550;7.980;2022-07-30T14:27:33;3.85;;;3.30;;
18822;SDS011;9540;51.550;7.980;2022-07-30T14:30:02;6.20;;;4.13;;
18822;SDS011;9540;51.550;7.980;2022-07-30T14:32:31;5.10;;;3.70;;
18822;SDS011;9540;51.550;7.980;2022-07-30T14:34:58;5.65;;;3.58;;
18822;SDS011;9540;51.550;7.980;2022-07-30T14:37:25;7.38;;;3.47;;
18822;SDS011;9540;51.550;7.980;2022-07-30T14:39:53;6.88;;;3.63;;
18822;SDS011;9540;51.550;7.980;2022-07-30T14:42:20;5.53;;;4.03;;
18822;SDS011;9540;51.550;7.980;2022-07-30T14:44:49;10.75;;;3.90;;
18822;SDS011;9540;51.550;7.980;2022-07-30T14:47:16;4.00;;;3.55;;
18822;SDS011;9540;51.550;7.980;2022-07-30T14:49:43;6.20;;;3.20;;
18822;SDS011;9540;51.550;7.980;2022-07-30T14:52:11;6.60;;;3.22;;
18822;SDS011;9540;51.550;7.980;2022-07-30T14:54:38;5.53;;;3.17;;
18822;SDS011;9540;51.550;7.980;2022-07-30T14:57:07;4.93;;;2.90;;
18822;SDS011;9540;51.550;7.980;2022-07-30T14:59:34;6.18;;;3.00;;
18822;SDS011;9540;51.550;7.980;2022-07-30T15:02:01;6.70;;;2.85;;
18822;SDS011;9540;51.550;7.980;2022-07-30T15:04:29;5.45;;;2.50;;
18822;SDS011;9540;51.550;7.980;2022-07-30T15:06:56;9.77;;;2.90;;
18822;SDS011;9540;51.550;7.980;2022-07-30T15:09:23;5.90;;;2.42;;
18822;SDS011;9540;51.550;7.980;2022-07-30T15:11:50;4.45;;;2.30;;